createdAt,value
2018-02-27T00:00:18.513Z,-4.03
2018-02-27T00:01:44.584Z,-3.99
2018-02-27T00:03:12.576Z,-4.02
2018-02-27T00:04:38.628Z,-4.01
2018-02-27T00:06:06.502Z,-4.05
2018-02-27T00:07:33.242Z,-4.04
2018-02-27T00:09:00.408Z,-4.01
2018-02-27T00:10:26.132Z,-3.98
2018-02-27T00:11:54.166Z,-3.99
2018-02-27T00:13:21.193Z,-3.97
2018-02-27T00:14:48.278Z,-3.98
2018-02-27T00:16:14.136Z,-3.95
2018-02-27T00:17:40.919Z,-3.93
2018-02-27T00:19:09.067Z,-3.90
2018-02-27T00:20:34.854Z,-3.86
2018-02-27T00:22:01.810Z,-3.88
2018-02-27T00:23:29.779Z,-3.94
2018-02-27T00:24:56.563Z,-3.95
2018-02-27T00:26:22.625Z,-3.93
2018-02-27T00:27:49.526Z,-3.94
2018-02-27T00:29:17.376Z,-3.92
2018-02-27T00:30:44.434Z,-3.90
2018-02-27T00:32:11.509Z,-3.90
2018-02-27T00:33:37.283Z,-3.87
2018-02-27T00:35:04.259Z,-3.86
2018-02-27T00:36:32.141Z,-3.88
2018-02-27T00:37:59.073Z,-3.87
2018-02-27T00:39:24.943Z,-3.82
2018-02-27T00:40:52.954Z,-3.74
2018-02-27T00:42:18.996Z,-3.64
2018-02-27T00:43:47.108Z,-3.56
2018-02-27T00:45:14.157Z,-3.49
2018-02-27T00:46:40.970Z,-3.41
2018-02-27T00:48:07.906Z,-3.39
2018-02-27T00:49:34.907Z,-3.38
2018-02-27T00:51:02.016Z,-3.34
2018-02-27T00:52:29.160Z,-3.30
2018-02-27T00:53:56.139Z,-3.26
2018-02-27T00:55:23.071Z,-3.24
2018-02-27T00:56:50.327Z,-3.23
2018-02-27T00:58:16.333Z,-3.21
2018-02-27T00:59:43.086Z,-3.17
2018-02-27T01:01:10.100Z,-3.14
2018-02-27T01:02:37.931Z,-3.14
2018-02-27T01:04:03.743Z,-3.12
2018-02-27T01:05:31.619Z,-3.09
2018-02-27T01:06:58.407Z,-3.07
2018-02-27T01:08:24.348Z,-3.11
2018-02-27T01:09:52.392Z,-3.11
2018-02-27T01:11:19.132Z,-3.09
2018-02-27T01:12:45.042Z,-3.11
2018-02-27T01:14:11.875Z,-3.13
2018-02-27T01:15:38.970Z,-3.11
2018-02-27T01:17:07.070Z,-3.08
2018-02-27T01:18:34.079Z,-3.05
2018-02-27T01:20:03.078Z,-3.02
2018-02-27T01:21:28.172Z,-3.00
2018-02-27T01:22:54.981Z,-2.99
2018-02-27T01:24:22.208Z,-2.98
2018-02-27T01:25:48.133Z,-3.00
2018-02-27T01:27:16.262Z,-3.00
2018-02-27T01:28:43.379Z,-3.02
2018-02-27T01:30:09.218Z,-3.03
2018-02-27T01:31:37.028Z,-3.09
2018-02-27T01:33:03.997Z,-3.25
2018-02-27T01:34:30.916Z,-3.43
2018-02-27T01:35:57.028Z,-3.43
2018-02-27T01:37:25.026Z,-3.42
2018-02-27T01:38:52.052Z,-3.43
2018-02-27T01:40:19.105Z,-3.43
2018-02-27T01:41:46.064Z,-3.43
2018-02-27T01:43:12.203Z,-3.45
2018-02-27T01:44:40.079Z,-3.51
2018-02-27T01:46:07.012Z,-3.56
2018-02-27T01:47:33.802Z,-3.60
2018-02-27T01:49:00.747Z,-3.64
2018-02-27T01:50:26.795Z,-3.68
2018-02-27T01:51:53.763Z,-3.78
2018-02-27T01:53:20.582Z,-3.88
2018-02-27T01:54:47.310Z,-3.93
2018-02-27T01:56:15.377Z,-3.97
2018-02-27T01:57:42.523Z,-3.97
2018-02-27T01:59:09.456Z,-3.99
2018-02-27T02:00:36.482Z,-4.00
2018-02-27T02:02:03.322Z,-4.01
2018-02-27T02:03:30.412Z,-4.02
2018-02-27T02:04:57.228Z,-4.03
2018-02-27T02:06:23.119Z,-4.03
2018-02-27T02:07:50.995Z,-4.06
2018-02-27T02:09:18.055Z,-4.07
2018-02-27T02:10:45.198Z,-4.06
2018-02-27T02:12:12.015Z,-4.08
2018-02-27T02:13:38.936Z,-4.07
2018-02-27T02:15:05.813Z,-4.12
2018-02-27T02:16:32.578Z,-4.13
2018-02-27T02:17:59.447Z,-4.14
2018-02-27T02:19:26.425Z,-4.16
2018-02-27T02:20:52.585Z,-4.23
2018-02-27T02:22:20.521Z,-4.27
2018-02-27T02:23:47.150Z,-4.35
2018-02-27T02:25:14.008Z,-4.38
2018-02-27T02:26:39.900Z,-4.40
2018-02-27T02:28:08.056Z,-4.43
2018-02-27T02:29:34.879Z,-4.44
2018-02-27T02:31:00.792Z,-4.48
2018-02-27T02:32:27.672Z,-4.49
2018-02-27T02:33:54.643Z,-4.51
2018-02-27T02:35:22.517Z,-4.52
2018-02-27T02:36:49.482Z,-4.53
2018-02-27T02:38:16.549Z,-4.55
2018-02-27T02:39:43.507Z,-4.57
2018-02-27T02:41:10.556Z,-4.59
2018-02-27T02:42:37.330Z,-4.63
2018-02-27T02:44:04.128Z,-4.66
2018-02-27T02:45:30.101Z,-4.71
2018-02-27T02:46:56.813Z,-4.75
2018-02-27T02:48:23.798Z,-4.77
2018-02-27T02:49:51.833Z,-4.79
2018-02-27T02:51:17.896Z,-4.79
2018-02-27T02:52:45.675Z,-4.78
2018-02-27T02:54:12.579Z,-4.82
2018-02-27T02:55:39.439Z,-4.91
2018-02-27T02:57:06.558Z,-4.95
2018-02-27T02:58:33.376Z,-4.97
2018-02-27T03:00:00.240Z,-5.02
2018-02-27T03:01:26.242Z,-5.07
2018-02-27T03:02:54.318Z,-5.09
2018-02-27T03:04:21.502Z,-5.09
2018-02-27T03:05:48.192Z,-5.08
2018-02-27T03:07:14.243Z,-5.06
2018-02-27T03:08:41.161Z,-5.06
2018-02-27T03:10:11.014Z,-5.04
2018-02-27T03:11:36.027Z,-5.03
2018-02-27T03:13:02.946Z,-5.00
2018-02-27T03:14:29.960Z,-5.01
2018-02-27T03:15:57.054Z,-5.03
2018-02-27T03:17:24.231Z,-4.99
2018-02-27T03:18:51.162Z,-5.03
2018-02-27T03:20:17.217Z,-5.05
2018-02-27T03:21:44.162Z,-5.07
2018-02-27T03:23:11.964Z,-5.09
2018-02-27T03:24:39.009Z,-5.07
2018-02-27T03:26:04.696Z,-5.04
2018-02-27T03:27:32.596Z,-5.04
2018-02-27T03:28:59.561Z,-5.04
2018-02-27T03:30:26.600Z,-5.07
2018-02-27T03:31:52.489Z,-5.11
2018-02-27T03:33:19.535Z,-5.12
2018-02-27T03:34:47.522Z,-5.08
2018-02-27T03:36:13.395Z,-5.05
2018-02-27T03:37:41.215Z,-5.08
2018-02-27T03:39:07.074Z,-5.04
2018-02-27T03:40:34.976Z,-5.04
2018-02-27T03:42:01.021Z,-5.05
2018-02-27T03:43:29.063Z,-5.01
2018-02-27T03:44:55.979Z,-5.03
2018-02-27T03:46:22.799Z,-5.01
2018-02-27T03:47:49.903Z,-5.03
2018-02-27T03:49:15.772Z,-5.01
2018-02-27T03:50:43.888Z,-5.03
2018-02-27T03:52:09.675Z,-5.06
2018-02-27T03:53:37.641Z,-5.09
2018-02-27T03:55:04.463Z,-5.05
2018-02-27T03:56:30.371Z,-5.06
2018-02-27T03:57:57.179Z,-5.09
2018-02-27T03:59:25.519Z,-5.09
2018-02-27T04:00:52.423Z,-5.09
2018-02-27T04:02:19.327Z,-5.08
2018-02-27T04:03:46.176Z,-5.07
2018-02-27T04:05:13.025Z,-5.09
2018-02-27T04:06:40.098Z,-5.11
2018-02-27T04:08:07.028Z,-5.13
2018-02-27T04:09:32.759Z,-5.13
2018-02-27T04:10:59.761Z,-5.14
2018-02-27T04:12:27.574Z,-5.14
2018-02-27T04:13:53.352Z,-5.13
2018-02-27T04:15:21.285Z,-5.11
2018-02-27T04:16:48.054Z,-5.13
2018-02-27T04:18:13.942Z,-5.16
2018-02-27T04:19:41.656Z,-5.17
2018-02-27T04:21:07.635Z,-5.18
2018-02-27T04:22:35.356Z,-5.21
2018-02-27T04:24:02.339Z,-5.23
2018-02-27T04:25:29.342Z,-5.25
2018-02-27T04:26:56.395Z,-5.24
2018-02-27T04:28:22.250Z,-5.22
2018-02-27T04:29:49.315Z,-5.20
2018-02-27T04:31:17.039Z,-5.20
2018-02-27T04:32:43.970Z,-5.20
2018-02-27T04:34:10.829Z,-5.17
2018-02-27T04:35:37.716Z,-5.14
2018-02-27T04:37:04.654Z,-5.12
2018-02-27T04:38:31.588Z,-5.07
2018-02-27T04:39:57.502Z,-5.00
2018-02-27T04:41:25.584Z,-4.92
2018-02-27T04:42:51.515Z,-4.85
2018-02-27T04:44:19.527Z,-4.79
2018-02-27T04:45:45.327Z,-4.73
2018-02-27T04:47:12.284Z,-4.67
2018-02-27T04:48:40.191Z,-4.63
2018-02-27T04:50:06.061Z,-4.62
2018-02-27T04:51:33.051Z,-4.66
2018-02-27T04:53:00.054Z,-4.68
2018-02-27T04:54:26.908Z,-4.70
2018-02-27T04:55:53.652Z,-4.70
2018-02-27T04:57:21.523Z,-4.71
2018-02-27T04:58:50.247Z,-4.68
2018-02-27T05:00:15.132Z,-4.66
2018-02-27T05:01:41.086Z,-4.65
2018-02-27T05:03:09.188Z,-4.64
2018-02-27T05:04:36.228Z,-4.59
2018-02-27T05:06:03.144Z,-4.53
2018-02-27T05:07:29.977Z,-4.48
2018-02-27T05:08:57.157Z,-4.45
2018-02-27T05:10:24.192Z,-4.42
2018-02-27T05:11:50.047Z,-4.37
2018-02-27T05:13:17.748Z,-4.34
2018-02-27T05:14:44.619Z,-4.31
2018-02-27T05:16:11.658Z,-4.30
2018-02-27T05:17:38.671Z,-4.29
2018-02-27T05:19:04.520Z,-4.26
2018-02-27T05:20:32.570Z,-4.25
2018-02-27T05:21:59.548Z,-4.27
2018-02-27T05:23:26.393Z,-4.26
2018-02-27T05:24:53.242Z,-4.26
2018-02-27T05:26:20.117Z,-4.25
2018-02-27T05:27:47.059Z,-4.23
2018-02-27T05:29:18.998Z,-4.22
2018-02-27T05:30:40.902Z,-4.22
2018-02-27T05:32:07.932Z,-4.23
2018-02-27T05:33:33.765Z,-4.26
2018-02-27T05:35:01.712Z,-4.30
2018-02-27T05:36:28.853Z,-4.34
2018-02-27T05:37:55.745Z,-4.37
2018-02-27T05:39:21.657Z,-4.50
2018-02-27T05:40:48.514Z,-4.64
2018-02-27T05:42:15.595Z,-4.75
2018-02-27T05:43:43.498Z,-4.82
2018-02-27T05:45:09.456Z,-4.85
2018-02-27T05:46:37.357Z,-4.91
2018-02-27T05:48:03.530Z,-4.98
2018-02-27T05:49:31.242Z,-5.04
2018-02-27T05:50:57.229Z,-5.10
2018-02-27T05:52:25.042Z,-5.15
2018-02-27T05:53:50.996Z,-5.20
2018-02-27T05:55:19.039Z,-5.22
2018-02-27T05:56:46.049Z,-5.23
2018-02-27T05:58:13.182Z,-5.25
2018-02-27T05:59:38.779Z,-5.24
2018-02-27T06:01:05.792Z,-5.25
2018-02-27T06:02:33.668Z,-5.25
2018-02-27T06:04:00.581Z,-5.25
2018-02-27T06:05:26.504Z,-5.23
2018-02-27T06:06:54.661Z,-5.20
2018-02-27T06:08:21.371Z,-5.18
2018-02-27T06:09:47.497Z,-5.15
2018-02-27T06:11:15.449Z,-5.10
2018-02-27T06:12:42.400Z,-5.05
2018-02-27T06:14:09.330Z,-5.01
2018-02-27T06:15:35.310Z,-4.96
2018-02-27T06:17:02.190Z,-4.93
2018-02-27T06:18:30.179Z,-4.90
2018-02-27T06:19:56.344Z,-4.85
2018-02-27T06:21:24.408Z,-4.80
2018-02-27T06:22:51.133Z,-4.73
2018-02-27T06:24:17.957Z,-4.67
2018-02-27T06:25:44.785Z,-4.60
2018-02-27T06:27:11.704Z,-4.55
2018-02-27T06:28:38.643Z,-4.50
2018-02-27T06:30:05.625Z,-4.43
2018-02-27T06:31:31.533Z,-4.35
2018-02-27T06:32:59.539Z,-4.29
2018-02-27T06:34:26.628Z,-4.23
2018-02-27T06:35:53.535Z,-4.19
2018-02-27T06:37:19.452Z,-4.13
2018-02-27T06:38:46.552Z,-4.08
2018-02-27T06:40:14.450Z,-4.04
2018-02-27T06:41:40.200Z,-3.98
2018-02-27T06:43:08.191Z,-3.94
2018-02-27T06:44:34.037Z,-3.90
2018-02-27T06:46:02.112Z,-3.86
2018-02-27T06:47:29.203Z,-3.81
2018-02-27T06:48:56.166Z,-3.77
2018-02-27T06:50:23.102Z,-3.74
2018-02-27T06:51:50.149Z,-3.71
2018-02-27T06:53:17.122Z,-3.70
2018-02-27T06:54:44.048Z,-3.68
2018-02-27T06:56:10.776Z,-3.66
2018-02-27T06:57:37.626Z,-3.63
2018-02-27T06:59:03.562Z,-3.62
2018-02-27T07:00:30.639Z,-3.62
2018-02-27T07:01:58.462Z,-3.59
2018-02-27T07:03:25.469Z,-3.59
2018-02-27T07:04:51.391Z,-3.58
2018-02-27T07:06:19.441Z,-3.57
2018-02-27T07:07:45.147Z,-3.55
2018-02-27T07:09:13.145Z,-3.54
2018-02-27T07:10:39.987Z,-3.51
2018-02-27T07:12:07.006Z,-3.49
2018-02-27T07:13:32.854Z,-3.47
2018-02-27T07:14:59.843Z,-3.46
2018-02-27T07:16:27.696Z,-3.46
2018-02-27T07:17:54.672Z,-3.47
2018-02-27T07:19:21.669Z,-3.46
2018-02-27T07:20:47.672Z,-3.44
2018-02-27T07:22:14.676Z,-3.43
2018-02-27T07:23:42.470Z,-3.42
2018-02-27T07:25:08.271Z,-3.42
2018-02-27T07:26:36.355Z,-3.41
2018-02-27T07:28:03.113Z,-3.40
2018-02-27T07:29:30.157Z,-3.39
2018-02-27T07:30:57.069Z,-3.37
2018-02-27T07:32:23.097Z,-3.36
2018-02-27T07:33:51.037Z,-3.36
2018-02-27T07:35:17.142Z,-3.34
2018-02-27T07:36:44.917Z,-3.33
2018-02-27T07:38:11.836Z,-3.31
2018-02-27T07:39:38.833Z,-3.30
2018-02-27T07:41:05.820Z,-3.30
2018-02-27T07:42:31.837Z,-3.28
2018-02-27T07:43:59.773Z,-3.26
2018-02-27T07:45:26.929Z,-3.26
2018-02-27T07:46:54.010Z,-3.28
2018-02-27T07:48:20.063Z,-3.25
2018-02-27T07:49:47.783Z,-3.22
2018-02-27T07:51:14.571Z,-3.19
2018-02-27T07:52:41.373Z,-3.15
2018-02-27T07:54:08.485Z,-3.12
2018-02-27T07:55:34.312Z,-3.08
2018-02-27T07:57:02.386Z,-3.05
2018-02-27T07:58:28.381Z,-3.04
2018-02-27T07:59:56.193Z,-3.01
2018-02-27T08:01:23.109Z,-2.97
2018-02-27T08:02:49.937Z,-2.92
2018-02-27T08:04:16.611Z,-2.89
2018-02-27T08:05:43.519Z,-2.88
2018-02-27T08:07:10.327Z,-2.86
2018-02-27T08:08:37.259Z,-2.85
2018-02-27T08:10:03.996Z,-2.85
2018-02-27T08:11:30.736Z,-2.81
2018-02-27T08:12:57.636Z,-2.80
2018-02-27T08:14:24.596Z,-2.79
2018-02-27T08:15:50.582Z,-2.77
2018-02-27T08:17:18.458Z,-2.72
2018-02-27T08:18:44.273Z,-2.70
2018-02-27T08:20:12.230Z,-2.69
2018-02-27T08:21:39.094Z,-2.68
2018-02-27T08:23:05.997Z,-2.69
2018-02-27T08:24:33.245Z,-2.70
2018-02-27T08:26:00.243Z,-2.71
2018-02-27T08:27:26.258Z,-2.74
2018-02-27T08:28:53.269Z,-2.76
2018-02-27T08:30:21.006Z,-2.77
2018-02-27T08:31:48.041Z,-2.77
2018-02-27T08:33:15.072Z,-2.74
2018-02-27T08:34:41.973Z,-2.72
2018-02-27T08:36:08.722Z,-2.72
2018-02-27T08:37:34.505Z,-2.72
2018-02-27T08:39:01.510Z,-2.74
2018-02-27T08:40:28.461Z,-2.76
2018-02-27T08:41:56.255Z,-2.79
2018-02-27T08:43:22.235Z,-2.80
2018-02-27T08:44:50.138Z,-2.78
2018-02-27T08:46:16.879Z,-2.74
2018-02-27T08:47:42.802Z,-2.70
2018-02-27T08:49:10.684Z,-2.67
2018-02-27T08:50:37.587Z,-2.65
2018-02-27T08:52:03.533Z,-2.62
2018-02-27T08:53:31.500Z,-2.58
2018-02-27T08:54:56.932Z,-2.54
2018-02-27T08:56:24.876Z,-2.51
2018-02-27T08:57:51.647Z,-2.51
2018-02-27T08:59:17.663Z,-2.51
2018-02-27T09:00:44.692Z,-2.49
2018-02-27T09:02:12.742Z,-2.48
2018-02-27T09:03:39.713Z,-2.49
2018-02-27T09:05:05.510Z,-2.49
2018-02-27T09:06:33.299Z,-2.48
2018-02-27T09:07:59.380Z,-2.49
2018-02-27T09:09:26.181Z,-2.46
2018-02-27T09:10:53.209Z,-2.42
2018-02-27T09:12:21.099Z,-2.41
2018-02-27T09:13:47.920Z,-2.41
2018-02-27T09:15:14.583Z,-2.42
2018-02-27T09:16:41.487Z,-2.43
2018-02-27T09:18:07.172Z,-2.44
2018-02-27T09:19:33.992Z,-2.46
2018-02-27T09:21:00.983Z,-2.49
2018-02-27T09:22:28.904Z,-2.51
2018-02-27T09:25:22.252Z,-2.56
2018-02-27T09:26:49.306Z,-2.60
2018-02-27T09:28:15.489Z,-2.69
2018-02-27T09:29:42.224Z,-2.71
2018-02-27T09:31:08.888Z,-2.76
2018-02-27T09:32:36.919Z,-2.73
2018-02-27T09:34:02.883Z,-2.76
2018-02-27T09:35:29.954Z,-2.83
2018-02-27T09:36:57.882Z,-2.80
2018-02-27T09:38:24.971Z,-2.75
2018-02-27T09:39:50.892Z,-2.70
2018-02-27T09:41:17.864Z,-2.72
2018-02-27T09:42:45.821Z,-2.69
2018-02-27T09:44:12.957Z,-2.73
2018-02-27T09:45:39.810Z,-2.76
2018-02-27T09:47:06.888Z,-2.79
2018-02-27T09:48:33.676Z,-2.82
2018-02-27T09:49:59.537Z,-2.85
2018-02-27T09:51:27.799Z,-2.86
2018-02-27T09:52:54.605Z,-2.85
2018-02-27T09:54:20.549Z,-2.84
2018-02-27T09:55:48.514Z,-2.86
2018-02-27T09:57:14.529Z,-2.89
2018-02-27T09:58:42.498Z,-2.90
2018-02-27T10:00:08.484Z,-2.90
2018-02-27T10:01:35.335Z,-2.87
2018-02-27T10:03:03.156Z,-2.84
2018-02-27T10:04:30.112Z,-2.76
2018-02-27T10:05:57.136Z,-2.66
2018-02-27T10:07:24.048Z,-2.58
2018-02-27T10:08:50.053Z,-2.50
2018-02-27T10:10:18.106Z,-2.43
2018-02-27T10:11:44.090Z,-2.36
2018-02-27T10:13:12.152Z,-2.27
2018-02-27T10:14:38.761Z,-2.21
2018-02-27T10:16:05.673Z,-2.15
2018-02-27T10:17:31.597Z,-2.12
2018-02-27T10:18:59.444Z,-2.04
2018-02-27T10:20:26.315Z,-2.01
2018-02-27T10:21:53.726Z,-1.97
2018-02-27T10:23:20.618Z,-1.88
2018-02-27T10:24:47.354Z,-1.88
2018-02-27T10:26:13.446Z,-1.89
2018-02-27T10:27:41.079Z,-1.90
2018-02-27T10:29:07.947Z,-2.01
2018-02-27T10:30:44.769Z,-2.04
2018-02-27T10:32:11.577Z,-2.09
2018-02-27T10:33:37.428Z,-2.09
2018-02-27T10:35:05.372Z,-2.10
2018-02-27T10:36:31.200Z,-2.11
2018-02-27T10:37:58.418Z,-2.13
2018-02-27T10:39:26.246Z,-2.15
2018-02-27T10:40:52.135Z,-2.14
2018-02-27T10:42:19.240Z,-2.12
2018-02-27T10:43:47.169Z,-2.08
2018-02-27T10:45:14.244Z,-2.02
2018-02-27T10:46:41.272Z,-1.99
2018-02-27T10:48:08.169Z,-2.00
2018-02-27T10:49:35.175Z,-1.96
2018-02-27T10:51:02.329Z,-1.95
2018-02-27T10:52:28.430Z,-1.94
2018-02-27T10:53:56.310Z,-2.01
2018-02-27T10:55:22.303Z,-2.05
2018-02-27T10:56:50.299Z,-2.09
2018-02-27T10:58:17.280Z,-2.12
2018-02-27T10:59:44.320Z,-2.12
2018-02-27T11:01:11.412Z,-2.15
2018-02-27T11:02:38.167Z,-2.18
2018-02-27T11:04:03.943Z,-2.18
2018-02-27T11:05:32.045Z,-2.11
2018-02-27T11:06:58.109Z,-2.08
2018-02-27T11:08:24.809Z,-2.07
2018-02-27T11:09:53.041Z,-2.03
2018-02-27T11:11:19.008Z,-2.02
2018-02-27T11:12:46.951Z,-1.97
2018-02-27T11:14:13.840Z,-1.98
2018-02-27T11:15:40.929Z,-1.98
2018-02-27T11:17:07.947Z,-1.95
2018-02-27T11:18:35.080Z,-1.96
2018-02-27T11:20:02.065Z,-1.93
2018-02-27T11:21:28.986Z,-1.97
2018-02-27T11:22:55.982Z,-1.99
2018-02-27T11:24:23.074Z,-2.02
2018-02-27T11:25:50.150Z,-2.02
2018-02-27T11:27:17.273Z,-2.02
2018-02-27T11:28:44.009Z,-2.03
2018-02-27T11:30:10.049Z,-2.14
2018-02-27T11:31:38.088Z,-2.31
2018-02-27T11:33:05.071Z,-2.39
2018-02-27T11:34:32.068Z,-2.42
2018-02-27T11:35:59.016Z,-2.41
2018-02-27T11:37:25.120Z,-2.36
2018-02-27T11:38:53.187Z,-2.36
2018-02-27T11:40:20.203Z,-2.38
2018-02-27T11:41:46.317Z,-2.35
2018-02-27T11:43:14.344Z,-2.35
2018-02-27T11:44:40.360Z,-2.33
2018-02-27T11:46:08.334Z,-2.27
2018-02-27T11:47:35.316Z,-2.18
2018-02-27T11:49:02.189Z,-2.19
2018-02-27T11:50:28.228Z,-2.26
2018-02-27T11:51:55.265Z,-2.25
2018-02-27T11:53:22.332Z,-2.22
2018-02-27T11:54:50.445Z,-2.23
2018-02-27T11:56:17.494Z,-2.17
2018-02-27T11:57:43.633Z,-2.14
2018-02-27T11:59:11.851Z,-2.09
2018-02-27T12:00:37.861Z,-2.10
2018-02-27T12:02:04.722Z,-2.12
2018-02-27T12:03:31.699Z,-2.11
2018-02-27T12:04:59.671Z,-2.04
2018-02-27T12:06:26.987Z,-1.98
2018-02-27T12:07:54.021Z,-1.96
2018-02-27T12:09:21.095Z,-1.98
2018-02-27T12:10:48.334Z,-2.04
2018-02-27T12:12:14.550Z,-2.17
2018-02-27T12:13:42.585Z,-2.19
2018-02-27T12:15:09.754Z,-2.15
2018-02-27T12:16:36.574Z,-2.15
2018-02-27T12:18:02.468Z,-2.13
2018-02-27T12:19:30.656Z,-2.10
2018-02-27T12:20:57.626Z,-2.02
2018-02-27T12:22:24.534Z,-1.94
2018-02-27T12:23:51.866Z,-1.84
2018-02-27T12:25:18.728Z,-1.76
2018-02-27T12:26:45.775Z,-1.73
2018-02-27T12:28:12.577Z,-1.70
2018-02-27T12:29:39.585Z,-1.66
2018-02-27T12:31:06.536Z,-1.67
2018-02-27T12:32:33.303Z,-1.62
2018-02-27T12:33:59.720Z,-1.63
2018-02-27T12:35:27.954Z,-1.62
2018-02-27T12:36:54.867Z,-1.61
2018-02-27T12:38:22.034Z,-1.64
2018-02-27T12:39:49.205Z,-1.62
2018-02-27T12:41:16.441Z,-1.61
2018-02-27T12:42:42.500Z,-1.61
2018-02-27T12:44:10.536Z,-1.67
2018-02-27T12:45:37.514Z,-1.70
2018-02-27T12:47:04.396Z,-1.71
2018-02-27T12:48:31.495Z,-1.78
2018-02-27T12:49:57.428Z,-1.77
2018-02-27T12:51:25.370Z,-1.85
2018-02-27T12:52:52.367Z,-1.93
2018-02-27T12:54:18.334Z,-1.99
2018-02-27T12:55:46.465Z,-2.07
2018-02-27T12:57:13.538Z,-2.17
2018-02-27T12:58:39.547Z,-2.18
2018-02-27T13:00:07.508Z,-2.21
2018-02-27T13:01:34.425Z,-2.24
2018-02-27T13:03:01.547Z,-2.22
2018-02-27T13:04:27.700Z,-2.14
2018-02-27T13:05:55.551Z,-2.09
2018-02-27T13:07:22.464Z,-2.17
2018-02-27T13:08:49.227Z,-2.17
2018-02-27T13:10:16.226Z,-2.16
2018-02-27T13:11:43.358Z,-2.20
2018-02-27T13:13:10.230Z,-2.29
2018-02-27T13:14:36.136Z,-2.42
2018-02-27T13:16:04.070Z,-2.45
2018-02-27T13:17:31.212Z,-2.48
2018-02-27T13:18:58.202Z,-2.50
2018-02-27T13:20:25.334Z,-2.50
2018-02-27T13:21:52.359Z,-2.53
2018-02-27T13:23:18.230Z,-2.54
2018-02-27T13:24:46.124Z,-2.66
2018-02-27T13:26:13.017Z,-2.75
2018-02-27T13:27:40.090Z,-2.88
2018-02-27T13:29:07.295Z,-2.99
2018-02-27T13:30:33.085Z,-3.07
2018-02-27T13:32:03.294Z,-3.20
2018-02-27T13:33:27.042Z,-3.33
2018-02-27T13:34:53.964Z,-3.34
2018-02-27T13:36:21.897Z,-3.41
2018-02-27T13:37:48.760Z,-3.43
2018-02-27T13:39:15.657Z,-3.49
2018-02-27T13:40:42.524Z,-3.55
2018-02-27T13:42:09.645Z,-3.52
2018-02-27T13:43:36.571Z,-3.47
2018-02-27T13:45:03.430Z,-3.48
2018-02-27T13:46:30.519Z,-3.36
2018-02-27T13:47:57.707Z,-3.29
2018-02-27T13:49:25.041Z,-3.16
2018-02-27T13:50:50.833Z,-3.10
2018-02-27T13:52:18.922Z,-3.06
2018-02-27T13:53:45.034Z,-2.96
2018-02-27T13:55:12.790Z,-2.84
2018-02-27T13:56:39.918Z,-2.72
2018-02-27T13:58:06.754Z,-2.68
2018-02-27T13:59:32.571Z,-2.67
2018-02-27T14:01:00.488Z,-2.69
2018-02-27T14:02:27.389Z,-2.76
2018-02-27T14:03:54.330Z,-2.90
2018-02-27T14:05:21.493Z,-2.97
2018-02-27T14:06:48.557Z,-2.96
2018-02-27T14:08:15.555Z,-3.03
2018-02-27T14:09:42.729Z,-3.17
2018-02-27T14:11:09.683Z,-3.25
2018-02-27T14:12:35.771Z,-3.30
2018-02-27T14:14:03.871Z,-3.31
2018-02-27T14:15:30.681Z,-3.35
2018-02-27T14:16:57.719Z,-3.43
2018-02-27T14:18:24.872Z,-3.57
2018-02-27T14:19:51.678Z,-3.71
2018-02-27T14:21:17.587Z,-3.74
2018-02-27T14:22:44.183Z,-3.81
2018-02-27T14:24:11.077Z,-3.78
2018-02-27T14:25:39.160Z,-3.74
2018-02-27T14:27:06.102Z,-3.75
2018-02-27T14:28:32.199Z,-3.73
2018-02-27T14:30:00.152Z,-3.67
2018-02-27T14:31:26.093Z,-3.69
2018-02-27T14:32:53.059Z,-3.77
2018-02-27T14:34:19.998Z,-3.83
2018-02-27T14:35:47.139Z,-3.89
2018-02-27T14:37:15.302Z,-3.88
2018-02-27T14:38:42.184Z,-3.94
2018-02-27T14:40:08.116Z,-3.96
2018-02-27T14:41:36.113Z,-4.03
2018-02-27T14:43:03.258Z,-4.13
2018-02-27T14:44:30.367Z,-4.18
2018-02-27T14:45:57.370Z,-4.21
2018-02-27T14:47:23.491Z,-4.21
2018-02-27T14:48:51.480Z,-4.26
2018-02-27T14:50:17.334Z,-4.31
2018-02-27T14:51:45.398Z,-4.37
2018-02-27T14:53:11.370Z,-4.42
2018-02-27T14:54:39.316Z,-4.47
2018-02-27T14:56:05.218Z,-4.51
2018-02-27T14:57:33.285Z,-4.52
2018-02-27T14:59:00.324Z,-4.54
2018-02-27T15:00:27.358Z,-4.54
2018-02-27T15:01:54.479Z,-4.55
2018-02-27T15:03:21.477Z,-4.58
2018-02-27T15:04:47.396Z,-4.56
2018-02-27T15:06:15.407Z,-4.56
2018-02-27T15:07:41.526Z,-4.55
2018-02-27T15:09:09.307Z,-4.59
2018-02-27T15:10:36.212Z,-4.64
2018-02-27T15:12:02.159Z,-4.66
2018-02-27T15:13:30.147Z,-4.75
2018-02-27T15:14:56.419Z,-4.77
2018-02-27T15:16:22.372Z,-4.80
2018-02-27T15:17:50.343Z,-4.86
2018-02-27T15:19:16.393Z,-4.94
2018-02-27T15:20:43.132Z,-4.96
2018-02-27T15:22:11.139Z,-5.00
2018-02-27T15:23:38.066Z,-5.03
2018-02-27T15:25:04.098Z,-5.04
2018-02-27T15:26:31.978Z,-5.05
2018-02-27T15:27:57.874Z,-5.05
2018-02-27T15:29:25.846Z,-5.07
2018-02-27T15:30:52.744Z,-5.10
2018-02-27T15:32:19.617Z,-5.14
2018-02-27T15:33:46.536Z,-5.13
2018-02-27T15:35:13.496Z,-5.15
2018-02-27T15:36:40.439Z,-5.19
2018-02-27T15:38:06.331Z,-5.23
2018-02-27T15:39:34.077Z,-5.29
2018-02-27T15:41:01.127Z,-5.32
2018-02-27T15:42:27.068Z,-5.32
2018-02-27T15:43:54.973Z,-5.33
2018-02-27T15:45:21.963Z,-5.34
2018-02-27T15:46:48.893Z,-5.36
2018-02-27T15:48:15.020Z,-5.37
2018-02-27T15:49:41.711Z,-5.39
2018-02-27T15:51:09.675Z,-5.43
2018-02-27T15:52:35.402Z,-5.46
2018-02-27T15:54:02.087Z,-5.51
2018-02-27T15:55:30.045Z,-5.56
2018-02-27T15:56:57.003Z,-5.61
2018-02-27T15:58:24.003Z,-5.63
2018-02-27T15:59:49.963Z,-5.64
2018-02-27T16:01:16.844Z,-5.67
2018-02-27T16:02:44.948Z,-5.68
2018-02-27T16:04:11.831Z,-5.69
2018-02-27T16:05:37.676Z,-5.72
2018-02-27T16:07:06.343Z,-5.74
2018-02-27T16:08:32.250Z,-5.74
2018-02-27T16:09:59.306Z,-5.75
2018-02-27T16:11:26.309Z,-5.78
2018-02-27T16:12:53.321Z,-5.84
2018-02-27T16:14:20.298Z,-5.84
2018-02-27T16:15:46.301Z,-5.85
2018-02-27T16:17:14.041Z,-5.87
2018-02-27T16:18:42.736Z,-5.90
2018-02-27T16:20:07.464Z,-5.89
2018-02-27T16:21:34.373Z,-5.89
2018-02-27T16:23:01.305Z,-5.90
2018-02-27T16:24:27.173Z,-5.92
2018-02-27T16:25:55.040Z,-5.94
2018-02-27T16:27:21.661Z,-5.94
2018-02-27T16:28:47.733Z,-5.96
2018-02-27T16:30:15.445Z,-5.97
2018-02-27T16:31:42.465Z,-6.00
2018-02-27T16:33:08.424Z,-6.02
2018-02-27T16:34:36.132Z,-6.02
2018-02-27T16:36:03.116Z,-6.05
2018-02-27T16:37:29.844Z,-6.04
2018-02-27T16:38:56.665Z,-6.07
2018-02-27T16:40:23.731Z,-6.11
2018-02-27T16:41:50.793Z,-6.14
2018-02-27T16:43:17.774Z,-6.15
2018-02-27T16:44:43.868Z,-6.15
2018-02-27T16:46:11.786Z,-6.16
2018-02-27T16:47:38.864Z,-6.21
2018-02-27T16:49:04.841Z,-6.23
2018-02-27T16:50:32.718Z,-6.22
2018-02-27T16:51:59.623Z,-6.22
2018-02-27T16:53:26.403Z,-6.24
2018-02-27T16:54:52.319Z,-6.25
2018-02-27T16:56:20.108Z,-6.28
2018-02-27T16:57:47.075Z,-6.29
2018-02-27T16:59:14.061Z,-6.33
2018-02-27T17:00:40.879Z,-6.35
2018-02-27T17:02:06.641Z,-6.36
2018-02-27T17:03:34.264Z,-6.37
2018-02-27T17:05:00.298Z,-6.39
2018-02-27T17:06:28.062Z,-6.41
2018-02-27T17:07:55.031Z,-6.44
2018-02-27T17:09:23.022Z,-6.48
2018-02-27T17:10:47.908Z,-6.52
2018-02-27T17:12:15.876Z,-6.59
2018-02-27T17:13:44.745Z,-6.62
2018-02-27T17:15:09.591Z,-6.62
2018-02-27T17:16:36.538Z,-6.61
2018-02-27T17:18:03.059Z,-6.62
2018-02-27T17:19:29.954Z,-6.66
2018-02-27T17:20:56.650Z,-6.71
2018-02-27T17:22:23.566Z,-6.72
2018-02-27T17:23:50.328Z,-6.73
2018-02-27T17:25:17.205Z,-6.77
2018-02-27T17:26:44.161Z,-6.79
2018-02-27T17:28:10.938Z,-6.83
2018-02-27T17:29:37.696Z,-6.85
2018-02-27T17:31:04.666Z,-6.90
2018-02-27T17:32:31.691Z,-6.94
2018-02-27T17:33:57.476Z,-6.99
2018-02-27T17:36:52.514Z,-7.03
2018-02-27T17:38:19.225Z,-7.06
2018-02-27T17:39:46.234Z,-7.09
2018-02-27T17:41:13.165Z,-7.13
2018-02-27T17:42:38.839Z,-7.18
2018-02-27T17:44:06.665Z,-7.22
2018-02-27T17:45:32.303Z,-7.29
2018-02-27T17:47:00.253Z,-7.32
2018-02-27T17:48:26.929Z,-7.34
2018-02-27T17:49:55.690Z,-7.35
2018-02-27T17:51:20.580Z,-7.36
2018-02-27T17:52:47.322Z,-7.37
2018-02-27T17:54:14.101Z,-7.35
2018-02-27T17:55:40.995Z,-7.32
2018-02-27T17:57:07.900Z,-7.26
2018-02-27T17:58:34.502Z,-7.24
2018-02-27T18:01:28.426Z,-7.21
2018-02-27T18:02:55.333Z,-7.20
2018-02-27T18:04:24.448Z,-7.22
2018-02-27T18:05:51.211Z,-7.24
2018-02-27T18:07:15.996Z,-7.25
2018-02-27T18:08:42.962Z,-7.28
2018-02-27T18:10:08.788Z,-7.31
2018-02-27T18:11:35.818Z,-7.30
2018-02-27T18:13:03.460Z,-7.28
2018-02-27T18:14:29.219Z,-7.28
2018-02-27T18:15:57.088Z,-7.27
2018-02-27T18:17:23.999Z,-7.25
2018-02-27T18:18:53.003Z,-7.23
2018-02-27T18:20:17.963Z,-7.20
2018-02-27T18:21:44.012Z,-7.18
2018-02-27T18:23:11.792Z,-7.15
2018-02-27T18:24:38.573Z,-7.11
2018-02-27T18:26:05.438Z,-7.07
2018-02-27T18:27:33.365Z,-7.06
2018-02-27T18:28:59.223Z,-7.02
2018-02-27T18:30:25.109Z,-6.99
2018-02-27T18:31:52.981Z,-6.96
2018-02-27T18:33:19.964Z,-6.91
2018-02-27T18:34:46.775Z,-6.91
2018-02-27T18:36:13.780Z,-6.89
2018-02-27T18:37:40.781Z,-6.87
2018-02-27T18:39:07.655Z,-6.87
2018-02-27T18:40:34.286Z,-6.86
2018-02-27T18:42:01.152Z,-6.86
2018-02-27T18:43:27.002Z,-6.86